createdAt,value
2018-05-14T00:00:00.697Z,18.49
2018-05-14T00:01:06.563Z,18.49
2018-05-14T00:02:13.074Z,18.49
2018-05-14T00:03:18.838Z,18.47
2018-05-14T00:04:24.596Z,18.48
2018-05-14T00:05:31.118Z,18.47
2018-05-14T00:06:36.858Z,18.46
2018-05-14T00:07:42.608Z,18.41
2018-05-14T00:08:48.376Z,18.43
2018-05-14T00:09:54.121Z,18.39
2018-05-14T00:10:59.869Z,18.39
2018-05-14T00:12:07.125Z,18.36
2018-05-14T00:13:12.897Z,18.37
2018-05-14T00:14:18.677Z,18.33
2018-05-14T00:15:24.456Z,18.36
2018-05-14T00:16:30.237Z,18.36
2018-05-14T00:17:36.747Z,18.34
2018-05-14T00:18:42.499Z,18.28
2018-05-14T00:19:48.285Z,18.31
2018-05-14T00:20:54.807Z,18.28
2018-05-14T00:22:00.580Z,18.28
2018-05-14T00:23:07.111Z,18.28
2018-05-14T00:24:13.642Z,18.23
2018-05-14T00:25:19.446Z,18.22
2018-05-14T00:26:25.968Z,18.23
2018-05-14T00:27:31.719Z,18.20
2018-05-14T00:28:37.467Z,18.20
2018-05-14T00:29:43.207Z,18.19
2018-05-14T00:30:49.755Z,18.20
2018-05-14T00:31:55.503Z,18.15
2018-05-14T00:33:02.044Z,18.12
2018-05-14T00:34:07.778Z,18.12
2018-05-14T00:35:13.524Z,18.10
2018-05-14T00:36:19.283Z,18.11
2018-05-14T00:37:24.802Z,18.08
2018-05-14T00:38:30.540Z,18.08
2018-05-14T00:39:36.283Z,18.08
2018-05-14T00:40:42.045Z,18.06
2018-05-14T00:41:49.353Z,18.04
2018-05-14T00:42:55.863Z,18.04
2018-05-14T00:44:01.610Z,18.05
2018-05-14T00:45:07.390Z,18.08
2018-05-14T00:46:13.151Z,18.08
2018-05-14T00:47:19.035Z,18.07
2018-05-14T00:48:24.803Z,18.06
2018-05-14T00:49:30.666Z,18.01
2018-05-14T00:50:36.595Z,17.99
2018-05-14T00:51:42.335Z,17.96
2018-05-14T00:52:48.882Z,17.94
2018-05-14T00:53:54.635Z,17.97
2018-05-14T00:55:18.376Z,17.94
2018-05-14T00:56:24.115Z,17.91
2018-05-14T00:57:29.867Z,17.85
2018-05-14T00:58:35.648Z,17.87
2018-05-14T00:59:41.393Z,17.88
2018-05-14T01:00:47.135Z,17.87
2018-05-14T01:01:52.915Z,17.83
2018-05-14T01:02:58.667Z,17.82
2018-05-14T01:04:04.453Z,17.82
2018-05-14T01:05:10.194Z,17.85
2018-05-14T01:06:15.952Z,17.81
2018-05-14T01:07:21.707Z,17.77
2018-05-14T01:08:27.460Z,17.76
2018-05-14T01:09:33.253Z,17.75
2018-05-14T01:10:39.759Z,17.76
2018-05-14T01:11:45.531Z,17.73
2018-05-14T01:12:51.283Z,17.70
2018-05-14T01:13:57.794Z,17.69
2018-05-14T01:15:03.571Z,17.67
2018-05-14T01:16:09.328Z,17.66
2018-05-14T01:17:15.907Z,17.64
2018-05-14T01:18:21.660Z,17.65
2018-05-14T01:19:27.407Z,17.62
2018-05-14T01:20:33.227Z,17.60
2018-05-14T01:21:39.727Z,17.62
2018-05-14T01:22:45.478Z,17.59
2018-05-14T01:23:51.211Z,17.59
2018-05-14T01:25:04.431Z,17.56
2018-05-14T01:26:10.209Z,17.54
2018-05-14T01:27:16.735Z,17.52
2018-05-14T01:28:21.911Z,17.52
2018-05-14T01:29:28.426Z,17.53
2018-05-14T01:30:34.176Z,17.53
2018-05-14T01:31:39.955Z,17.53
2018-05-14T01:32:46.463Z,17.53
2018-05-14T01:33:52.246Z,17.49
2018-05-14T01:34:58.760Z,17.42
2018-05-14T01:36:04.504Z,17.42
2018-05-14T01:37:10.288Z,17.38
2018-05-14T01:38:16.806Z,17.37
2018-05-14T01:39:22.594Z,17.35
2018-05-14T01:40:29.099Z,17.33
2018-05-14T01:41:34.845Z,17.35
2018-05-14T01:42:40.677Z,17.35
2018-05-14T01:43:46.456Z,17.34
2018-05-14T01:44:52.230Z,17.31
2018-05-14T01:45:58.730Z,17.31
2018-05-14T01:47:04.157Z,17.25
2018-05-14T01:48:09.971Z,17.27
2018-05-14T01:49:15.728Z,17.27
2018-05-14T01:50:21.502Z,17.25
2018-05-14T01:51:27.073Z,17.24
2018-05-14T01:52:32.846Z,17.18
2018-05-14T01:53:38.614Z,17.17
2018-05-14T01:54:44.361Z,17.16
2018-05-14T01:55:50.107Z,17.18
2018-05-14T01:56:55.850Z,17.19
2018-05-14T01:58:01.607Z,17.16
2018-05-14T01:59:07.371Z,17.17
2018-05-14T02:00:13.899Z,17.14
2018-05-14T02:01:19.399Z,17.11
2018-05-14T02:02:25.156Z,17.11
2018-05-14T02:03:30.903Z,17.08
2018-05-14T02:04:36.667Z,17.10
2018-05-14T02:05:42.414Z,17.08
2018-05-14T02:06:48.274Z,17.10
2018-05-14T02:07:54.152Z,17.07
2018-05-14T02:08:59.907Z,17.04
2018-05-14T02:10:05.017Z,17.04
2018-05-14T02:11:10.786Z,17.04
2018-05-14T02:12:16.530Z,17.04
2018-05-14T02:13:22.287Z,17.00
2018-05-14T02:14:28.040Z,17.02
2018-05-14T02:15:34.572Z,16.99
2018-05-14T02:16:40.335Z,16.95
2018-05-14T02:17:46.093Z,16.93
2018-05-14T02:18:52.615Z,16.92
2018-05-14T02:19:58.359Z,16.93
2018-05-14T02:21:04.120Z,16.90
2018-05-14T02:22:09.883Z,16.90
2018-05-14T02:23:16.448Z,16.89
2018-05-14T02:24:22.207Z,16.85
2018-05-14T02:25:27.982Z,16.85
2018-05-14T02:26:33.750Z,16.85
2018-05-14T02:27:40.277Z,16.81
2018-05-14T02:28:46.022Z,16.78
2018-05-14T02:29:51.786Z,16.74
2018-05-14T02:30:58.298Z,16.76
2018-05-14T02:32:04.073Z,16.78
2018-05-14T02:33:09.833Z,16.75
2018-05-14T02:34:16.436Z,16.75
2018-05-14T02:35:23.128Z,16.74
2018-05-14T02:36:28.877Z,16.75
2018-05-14T02:37:34.664Z,16.74
2018-05-14T02:38:41.179Z,16.72
2018-05-14T02:39:46.936Z,16.68
2018-05-14T02:40:52.687Z,16.70
2018-05-14T02:41:59.214Z,16.71
2018-05-14T02:43:04.978Z,16.74
2018-05-14T02:44:10.732Z,16.74
2018-05-14T02:45:17.309Z,16.72
2018-05-14T02:46:23.819Z,16.68
2018-05-14T02:47:29.572Z,16.71
2018-05-14T02:48:35.352Z,16.70
2018-05-14T02:49:41.105Z,16.68
2018-05-14T02:50:47.248Z,16.68
2018-05-14T02:51:52.999Z,16.69
2018-05-14T02:52:58.739Z,16.69
2018-05-14T02:54:04.528Z,16.67
2018-05-14T02:55:10.267Z,16.67
2018-05-14T02:56:16.032Z,16.69
2018-05-14T02:57:22.552Z,16.71
2018-05-14T02:58:28.311Z,16.69
2018-05-14T02:59:34.083Z,16.69
2018-05-14T03:00:40.607Z,16.69
2018-05-14T03:01:46.355Z,16.69
2018-05-14T03:02:52.164Z,16.66
2018-05-14T03:03:58.006Z,16.66
2018-05-14T03:05:03.908Z,16.67
2018-05-14T03:06:10.430Z,16.63
2018-05-14T03:07:16.182Z,16.63
2018-05-14T03:08:21.940Z,16.62
2018-05-14T03:09:27.358Z,16.61
2018-05-14T03:10:33.220Z,16.57
2018-05-14T03:11:39.867Z,16.58
2018-05-14T03:12:45.609Z,16.57
2018-05-14T03:13:51.379Z,16.57
2018-05-14T03:14:57.908Z,16.54
2018-05-14T03:16:03.709Z,16.52
2018-05-14T03:17:09.454Z,16.51
2018-05-14T03:18:15.207Z,16.51
2018-05-14T03:19:20.975Z,16.52
2018-05-14T03:20:26.724Z,16.51
2018-05-14T03:21:32.502Z,16.50
2018-05-14T03:22:39.027Z,16.48
2018-05-14T03:23:46.291Z,16.47
2018-05-14T03:24:52.144Z,16.44
2018-05-14T03:25:57.907Z,16.43
2018-05-14T03:27:04.455Z,16.42
2018-05-14T03:28:10.235Z,16.38
2018-05-14T03:29:15.981Z,16.33
2018-05-14T03:30:21.752Z,16.33
2018-05-14T03:31:27.530Z,16.33
2018-05-14T03:32:33.096Z,16.35
2018-05-14T03:33:38.848Z,16.32
2018-05-14T03:34:44.630Z,16.32
2018-05-14T03:35:50.391Z,16.33
2018-05-14T03:36:56.945Z,16.30
2018-05-14T03:38:02.768Z,16.29
2018-05-14T03:39:08.515Z,16.28
2018-05-14T03:40:14.266Z,16.25
2018-05-14T03:41:20.027Z,16.26
2018-05-14T03:42:26.553Z,16.30
2018-05-14T03:43:32.331Z,16.28
2018-05-14T03:44:38.872Z,16.28
2018-05-14T03:45:45.394Z,16.29
2018-05-14T03:46:51.164Z,16.30
2018-05-14T03:47:56.919Z,16.32
2018-05-14T03:49:03.475Z,16.32
2018-05-14T03:50:09.234Z,16.30
2018-05-14T03:51:15.004Z,16.28
2018-05-14T03:52:20.760Z,16.31
2018-05-14T03:53:26.517Z,16.34
2018-05-14T03:54:32.298Z,16.36
2018-05-14T03:55:38.854Z,16.37
2018-05-14T03:56:45.048Z,16.38
2018-05-14T03:57:50.804Z,16.33
2018-05-14T04:00:58.675Z,16.30
2018-05-14T04:02:30.138Z,16.28
2018-05-14T04:03:53.711Z,16.25
2018-05-14T04:06:46.575Z,16.18
2018-05-14T04:07:52.436Z,16.18
2018-05-14T04:08:58.195Z,16.21
2018-05-14T04:10:04.738Z,16.20
2018-05-14T04:11:11.326Z,16.21
2018-05-14T04:12:17.117Z,16.21
2018-05-14T04:13:22.879Z,16.22
2018-05-14T04:14:28.640Z,16.22
2018-05-14T04:15:35.160Z,16.24
2018-05-14T04:16:41.002Z,16.26
2018-05-14T04:17:47.700Z,16.24
2018-05-14T04:18:54.227Z,16.26
2018-05-14T04:19:59.988Z,16.25
2018-05-14T04:21:05.746Z,16.30
2018-05-14T04:22:12.294Z,16.34
2018-05-14T04:23:17.857Z,16.35
2018-05-14T04:24:23.715Z,16.35
2018-05-14T04:25:29.594Z,16.38
2018-05-14T04:26:35.363Z,16.38
2018-05-14T04:27:41.131Z,16.36
2018-05-14T04:28:46.920Z,16.35
2018-05-14T04:29:52.693Z,16.36
2018-05-14T04:30:59.233Z,16.35
2018-05-14T04:32:05.771Z,16.35
2018-05-14T04:33:11.559Z,16.37
2018-05-14T04:34:18.128Z,16.34
2018-05-14T04:35:24.670Z,16.39
2018-05-14T04:36:31.189Z,16.40
2018-05-14T04:37:36.972Z,16.42
2018-05-14T04:38:42.747Z,16.41
2018-05-14T04:39:48.554Z,16.49
2018-05-14T04:40:54.303Z,16.51
2018-05-14T04:42:00.827Z,16.52
2018-05-14T04:43:06.585Z,16.54
2018-05-14T04:44:12.347Z,16.57
2018-05-14T04:45:18.934Z,16.58
2018-05-14T04:46:24.692Z,16.60
2018-05-14T04:47:30.459Z,16.62
2018-05-14T04:48:36.586Z,16.63
2018-05-14T04:49:42.360Z,16.65
2018-05-14T04:50:48.156Z,16.67
2018-05-14T04:51:53.923Z,16.65
2018-05-14T04:52:59.703Z,16.69
2018-05-14T04:54:06.241Z,16.72
2018-05-14T04:55:11.997Z,16.71
2018-05-14T04:56:17.794Z,16.74
2018-05-14T04:57:23.558Z,16.75
2018-05-14T04:58:29.332Z,16.74
2018-05-14T04:59:35.101Z,16.77
2018-05-14T05:00:40.859Z,16.78
2018-05-14T05:01:46.641Z,16.81
2018-05-14T05:02:52.409Z,16.84
2018-05-14T05:03:58.985Z,16.82
2018-05-14T05:05:04.751Z,16.85
2018-05-14T05:06:10.519Z,16.84
2018-05-14T05:07:16.315Z,16.87
2018-05-14T05:08:21.883Z,16.89
2018-05-14T05:09:27.653Z,16.90
2018-05-14T05:10:34.207Z,16.94
2018-05-14T05:11:40.003Z,16.95
2018-05-14T05:12:45.782Z,17.02
2018-05-14T05:13:51.551Z,17.03
2018-05-14T05:14:58.089Z,17.07
2018-05-14T05:16:03.868Z,17.08
2018-05-14T05:17:10.406Z,17.10
2018-05-14T05:18:16.285Z,17.18
2018-05-14T05:19:22.065Z,17.23
2018-05-14T05:20:27.858Z,17.23
2018-05-14T05:21:33.618Z,17.29
2018-05-14T05:22:39.409Z,17.34
2018-05-14T05:23:45.231Z,17.35
2018-05-14T05:24:51.008Z,17.38
2018-05-14T05:25:56.792Z,17.43
2018-05-14T05:27:02.570Z,17.47
2018-05-14T05:28:08.350Z,17.50
2018-05-14T05:29:14.152Z,17.54
2018-05-14T05:30:19.921Z,17.61
2018-05-14T05:31:25.682Z,17.66
2018-05-14T05:32:31.447Z,17.70
2018-05-14T05:33:37.221Z,17.73
2018-05-14T05:34:43.019Z,17.75
2018-05-14T05:35:49.554Z,17.80
2018-05-14T05:36:56.094Z,17.82
2018-05-14T05:38:01.859Z,17.83
2018-05-14T05:39:08.606Z,17.87
2018-05-14T05:40:14.393Z,17.93
2018-05-14T05:41:20.174Z,17.96
2018-05-14T05:42:25.935Z,18.02
2018-05-14T05:43:31.686Z,18.06
2018-05-14T05:44:38.232Z,18.09
2018-05-14T05:45:44.028Z,18.08
2018-05-14T05:46:49.794Z,18.11
2018-05-14T05:47:55.566Z,18.15
2018-05-14T05:49:02.119Z,18.17
2018-05-14T05:50:07.887Z,18.21
2018-05-14T05:51:14.455Z,18.24
2018-05-14T05:52:20.329Z,18.31
2018-05-14T05:53:26.004Z,18.38
2018-05-14T05:54:31.772Z,18.41
2018-05-14T05:55:38.376Z,18.44
2018-05-14T05:56:44.424Z,18.49
2018-05-14T05:57:50.220Z,18.53
2018-05-14T05:58:56.756Z,18.59
2018-05-14T06:00:02.521Z,18.64
2018-05-14T06:01:09.087Z,18.65
2018-05-14T06:02:15.643Z,18.69
2018-05-14T06:03:22.155Z,18.76
2018-05-14T06:04:27.921Z,18.81
2018-05-14T06:05:33.731Z,18.90
2018-05-14T06:06:40.458Z,18.99
2018-05-14T06:07:47.006Z,19.03
2018-05-14T06:08:53.551Z,19.12
2018-05-14T06:09:59.311Z,19.15
2018-05-14T06:11:05.829Z,19.26
2018-05-14T06:12:11.612Z,19.40
2018-05-14T06:13:18.245Z,19.70
2018-05-14T06:14:24.024Z,20.17
2018-05-14T06:15:29.900Z,20.74
2018-05-14T06:16:35.879Z,21.38
2018-05-14T06:17:41.638Z,22.04
2018-05-14T06:18:48.448Z,22.61
2018-05-14T06:19:54.210Z,23.06
2018-05-14T06:20:59.978Z,23.55
2018-05-14T06:22:05.736Z,24.06
2018-05-14T06:23:12.264Z,24.53
2018-05-14T06:24:18.051Z,24.92
2018-05-14T06:25:23.823Z,25.38
2018-05-14T06:26:29.582Z,25.88
2018-05-14T06:27:35.386Z,26.40
2018-05-14T06:28:41.139Z,26.79
2018-05-14T06:29:46.927Z,27.10
2018-05-14T06:30:52.685Z,27.48
2018-05-14T06:31:59.219Z,27.86
2018-05-14T06:33:04.979Z,28.19
2018-05-14T06:34:11.520Z,28.56
2018-05-14T06:35:17.279Z,28.92
2018-05-14T06:36:23.826Z,29.34
2018-05-14T06:37:29.657Z,29.77
2018-05-14T06:38:35.420Z,30.05
2018-05-14T06:39:41.195Z,30.24
2018-05-14T06:40:47.748Z,30.43
2018-05-14T06:41:54.321Z,30.57
2018-05-14T06:43:00.106Z,30.66
2018-05-14T06:44:05.867Z,30.84
2018-05-14T06:45:11.669Z,30.93
2018-05-14T06:46:17.818Z,30.84
2018-05-14T06:47:23.579Z,30.77
2018-05-14T06:48:29.334Z,30.59
2018-05-14T06:49:35.100Z,30.58
2018-05-14T06:50:40.842Z,30.37
2018-05-14T06:51:47.393Z,30.39
2018-05-14T06:52:53.153Z,30.45
2018-05-14T06:53:59.676Z,30.54
2018-05-14T06:55:05.132Z,30.73
2018-05-14T06:56:11.072Z,30.80
2018-05-14T06:57:16.841Z,30.99
2018-05-14T06:58:22.610Z,31.13
2018-05-14T06:59:28.390Z,31.24
2018-05-14T07:00:34.146Z,31.54
2018-05-14T07:01:39.916Z,31.84
2018-05-14T07:02:45.747Z,32.07
2018-05-14T07:03:52.448Z,32.02
2018-05-14T07:04:58.195Z,32.33
2018-05-14T07:06:03.955Z,32.50
2018-05-14T07:07:09.710Z,32.49
2018-05-14T07:08:15.505Z,32.35
2018-05-14T07:09:22.028Z,32.46
2018-05-14T07:10:28.559Z,32.66
2018-05-14T07:11:34.389Z,32.91
2018-05-14T07:12:40.284Z,32.82
2018-05-14T07:13:46.824Z,33.24
2018-05-14T07:14:52.621Z,33.40
2018-05-14T07:15:58.403Z,33.83
2018-05-14T07:17:04.154Z,34.08
2018-05-14T07:18:10.691Z,34.31
2018-05-14T07:19:17.252Z,34.38
2018-05-14T07:20:23.016Z,34.32
2018-05-14T07:21:28.776Z,34.33
2018-05-14T07:22:35.297Z,34.46
2018-05-14T07:23:41.040Z,34.70
2018-05-14T07:24:46.898Z,34.81
2018-05-14T07:25:53.537Z,35.02
2018-05-14T07:26:59.287Z,34.94
2018-05-14T07:28:05.172Z,34.61
2018-05-14T07:29:10.927Z,34.42
2018-05-14T07:30:16.765Z,34.49
2018-05-14T07:31:22.738Z,34.48
2018-05-14T07:32:28.477Z,34.37
2018-05-14T07:33:34.295Z,34.45
2018-05-14T07:34:40.241Z,34.98
2018-05-14T07:35:46.047Z,34.99
2018-05-14T07:36:52.563Z,35.35
2018-05-14T07:37:58.346Z,35.67
2018-05-14T07:39:03.621Z,35.60
2018-05-14T07:40:09.371Z,35.89
2018-05-14T07:41:15.146Z,35.82
2018-05-14T07:42:20.939Z,36.14
2018-05-14T07:43:26.728Z,36.21
2018-05-14T07:44:32.490Z,36.17
2018-05-14T07:45:38.261Z,35.71
2018-05-14T07:46:44.831Z,35.56
2018-05-14T07:47:50.579Z,35.45
2018-05-14T07:48:56.330Z,35.00
2018-05-14T07:50:02.092Z,34.79
2018-05-14T07:51:07.873Z,34.52
2018-05-14T07:52:14.405Z,34.28
2018-05-14T07:53:20.165Z,34.10
2018-05-14T07:54:26.020Z,34.27
2018-05-14T07:55:31.914Z,34.28
2018-05-14T07:56:37.667Z,34.62
2018-05-14T07:57:43.443Z,34.72
2018-05-14T07:58:49.247Z,34.84
2018-05-14T07:59:55.006Z,34.87
2018-05-14T08:01:00.988Z,35.00
2018-05-14T08:02:07.517Z,34.96
2018-05-14T08:03:13.284Z,34.81
2018-05-14T08:04:19.803Z,35.30
2018-05-14T08:05:25.568Z,35.33
2018-05-14T08:06:31.314Z,35.47
2018-05-14T08:07:37.865Z,35.31
2018-05-14T08:08:43.845Z,34.91
2018-05-14T08:09:49.611Z,34.72
2018-05-14T08:10:55.375Z,34.57
2018-05-14T08:12:01.122Z,34.16
2018-05-14T08:13:06.984Z,34.26
2018-05-14T08:14:12.938Z,34.30
2018-05-14T08:15:19.474Z,34.36
2018-05-14T08:16:25.227Z,34.40
2018-05-14T08:17:30.996Z,34.40
2018-05-14T08:18:37.525Z,34.34
2018-05-14T08:19:43.303Z,34.32
2018-05-14T08:20:49.106Z,34.53
2018-05-14T08:21:55.048Z,34.71
2018-05-14T08:23:00.812Z,35.07
2018-05-14T08:24:07.327Z,35.06
2018-05-14T08:25:13.102Z,35.24
2018-05-14T08:26:18.867Z,35.38
2018-05-14T08:27:25.415Z,35.36
2018-05-14T08:28:31.927Z,35.52
2018-05-14T08:29:37.679Z,35.83
2018-05-14T08:30:43.445Z,35.71
2018-05-14T08:31:49.195Z,35.67
2018-05-14T08:32:55.700Z,35.63
2018-05-14T08:34:01.458Z,35.62
2018-05-14T08:35:07.201Z,35.71
2018-05-14T08:36:12.970Z,35.85
2018-05-14T08:37:18.723Z,35.88
2018-05-14T08:38:25.263Z,35.93
2018-05-14T08:39:31.952Z,35.97
2018-05-14T08:40:38.464Z,35.94
2018-05-14T08:41:44.259Z,35.84
2018-05-14T08:42:50.786Z,36.07
2018-05-14T08:43:56.539Z,36.40
2018-05-14T08:45:01.949Z,36.32
2018-05-14T08:46:07.704Z,36.63
2018-05-14T08:47:13.472Z,37.21
2018-05-14T08:48:20.002Z,37.56
2018-05-14T08:49:25.747Z,37.64
2018-05-14T08:50:31.492Z,37.26
2018-05-14T08:51:37.239Z,36.79
2018-05-14T08:52:43.023Z,36.67
2018-05-14T08:53:48.859Z,36.52
2018-05-14T08:54:54.750Z,36.47
2018-05-14T08:56:00.501Z,36.37
2018-05-14T08:57:05.927Z,36.21
2018-05-14T08:58:11.708Z,36.24
2018-05-14T08:59:18.233Z,35.79
2018-05-14T09:00:23.979Z,35.19
2018-05-14T09:01:29.742Z,35.10
2018-05-14T09:02:35.490Z,34.96
2018-05-14T09:03:42.035Z,35.02
2018-05-14T09:04:48.576Z,35.04
2018-05-14T09:05:54.319Z,35.23
2018-05-14T09:07:00.072Z,35.26
2018-05-14T09:08:05.822Z,35.21
2018-05-14T09:09:11.588Z,35.28
2018-05-14T09:10:18.109Z,35.19
2018-05-14T09:11:23.855Z,34.82
2018-05-14T09:12:29.627Z,34.78
2018-05-14T09:13:35.939Z,34.61
2018-05-14T09:14:41.716Z,34.81
2018-05-14T09:15:48.232Z,35.07
2018-05-14T09:16:53.979Z,35.01
2018-05-14T09:17:59.727Z,35.16
2018-05-14T09:19:05.147Z,35.18
2018-05-14T09:20:10.923Z,35.36
2018-05-14T09:21:17.453Z,35.27
2018-05-14T09:22:23.198Z,34.97
2018-05-14T09:23:28.956Z,34.63
2018-05-14T09:24:34.509Z,34.84
2018-05-14T09:25:41.043Z,35.21
2018-05-14T09:26:46.792Z,35.31
2018-05-14T09:27:52.547Z,35.12
2018-05-14T09:28:59.055Z,34.90
2018-05-14T09:30:04.232Z,34.79
2018-05-14T09:31:10.847Z,34.74
2018-05-14T09:32:16.532Z,34.59
2018-05-14T09:33:23.045Z,34.52
2018-05-14T09:34:28.794Z,34.67
2018-05-14T09:35:34.550Z,34.86
2018-05-14T09:36:40.324Z,34.97
2018-05-14T09:37:46.833Z,34.98
2018-05-14T09:38:52.576Z,34.87
2018-05-14T09:39:58.334Z,34.86
2018-05-14T09:41:04.097Z,34.59
2018-05-14T09:42:10.644Z,34.61
2018-05-14T09:43:16.480Z,34.65
2018-05-14T09:44:22.223Z,34.73
2018-05-14T09:45:28.010Z,34.85
2018-05-14T09:46:33.764Z,35.00
2018-05-14T09:47:39.535Z,35.16
2018-05-14T09:48:45.275Z,35.28
2018-05-14T09:49:51.030Z,35.66
2018-05-14T09:50:56.802Z,35.45
2018-05-14T09:52:03.123Z,35.18
2018-05-14T09:53:08.895Z,35.22
2018-05-14T09:54:15.397Z,35.21
2018-05-14T09:55:21.158Z,34.99
2018-05-14T09:56:27.111Z,35.36
2018-05-14T09:57:32.863Z,35.12
2018-05-14T09:58:38.653Z,35.10
2018-05-14T09:59:44.420Z,34.90
2018-05-14T10:00:50.166Z,34.96
2018-05-14T10:01:56.004Z,34.91
2018-05-14T10:03:01.886Z,34.96
2018-05-14T10:04:07.753Z,35.23
2018-05-14T10:05:14.252Z,35.07
2018-05-14T10:06:19.999Z,35.06
2018-05-14T10:07:25.768Z,34.79
2018-05-14T10:08:33.015Z,34.78
2018-05-14T10:09:38.819Z,34.77
2018-05-14T10:10:45.323Z,34.96
2018-05-14T10:11:51.101Z,34.96
2018-05-14T10:12:57.691Z,34.73
2018-05-14T10:14:03.579Z,34.83
2018-05-14T10:15:09.360Z,34.99
2018-05-14T10:16:15.125Z,34.95
2018-05-14T10:17:20.869Z,34.87
2018-05-14T10:18:26.606Z,34.35
2018-05-14T10:19:32.359Z,33.82
2018-05-14T10:20:38.123Z,33.55
2018-05-14T10:21:43.875Z,33.65
2018-05-14T10:22:49.642Z,33.54
2018-05-14T10:23:56.162Z,33.54
2018-05-14T10:25:01.914Z,33.31
2018-05-14T10:26:07.375Z,33.21
2018-05-14T10:27:13.897Z,32.87
2018-05-14T10:28:19.675Z,32.78
2018-05-14T10:29:26.196Z,32.66
2018-05-14T10:30:31.948Z,32.45
2018-05-14T10:31:37.713Z,32.30
2018-05-14T10:32:43.466Z,32.08
2018-05-14T10:33:49.988Z,31.76
2018-05-14T10:34:55.748Z,31.41
2018-05-14T10:36:01.509Z,31.04
2018-05-14T10:37:07.303Z,30.94
2018-05-14T10:38:13.062Z,30.68
2018-05-14T10:39:18.819Z,30.38
2018-05-14T10:40:25.338Z,30.11
2018-05-14T10:41:31.087Z,29.86
2018-05-14T10:42:36.855Z,29.66
2018-05-14T10:43:42.605Z,29.57
2018-05-14T10:44:49.121Z,29.55
2018-05-14T10:45:54.882Z,29.48
2018-05-14T10:47:00.634Z,29.34
2018-05-14T10:48:06.420Z,29.13
2018-05-14T10:49:12.173Z,28.90
2018-05-14T10:50:17.910Z,28.78
2018-05-14T10:51:23.673Z,28.58
2018-05-14T10:52:29.515Z,28.61
2018-05-14T10:53:35.419Z,28.64
2018-05-14T10:54:41.180Z,28.61
2018-05-14T10:55:46.936Z,28.45
2018-05-14T10:56:52.699Z,28.42
2018-05-14T10:57:58.129Z,28.36
2018-05-14T10:59:03.718Z,28.24
2018-05-14T11:00:09.169Z,28.01
2018-05-14T11:01:15.687Z,27.89
2018-05-14T11:02:22.215Z,27.95
2018-05-14T11:03:27.974Z,27.95
2018-05-14T11:04:33.779Z,27.87
2018-05-14T11:05:39.518Z,27.78
2018-05-14T11:06:45.299Z,27.66
2018-05-14T11:07:51.047Z,27.63
2018-05-14T11:10:11.867Z,27.53
2018-05-14T11:11:18.397Z,27.43
2018-05-14T11:12:24.151Z,27.36
2018-05-14T11:13:29.906Z,27.42
2018-05-14T11:14:36.432Z,27.44
2018-05-14T11:15:42.230Z,27.42
2018-05-14T11:16:47.994Z,27.39
2018-05-14T11:17:53.771Z,27.39
2018-05-14T11:18:59.532Z,27.42
2018-05-14T11:20:04.955Z,27.39
2018-05-14T11:21:10.743Z,27.37
2018-05-14T11:22:16.492Z,27.33
2018-05-14T11:23:22.247Z,27.27
2018-05-14T11:24:28.002Z,27.26
2018-05-14T11:25:33.519Z,27.33
2018-05-14T11:26:39.303Z,27.27
2018-05-14T11:27:45.918Z,27.27
2018-05-14T11:28:51.783Z,27.30
2018-05-14T11:29:57.545Z,27.27
2018-05-14T11:31:03.319Z,27.21
2018-05-14T11:32:09.851Z,27.16
2018-05-14T11:33:15.605Z,27.18
2018-05-14T11:34:22.133Z,27.16
2018-05-14T11:35:27.994Z,27.14
2018-05-14T11:36:34.663Z,27.20
2018-05-14T11:37:40.439Z,27.27
2018-05-14T11:38:46.202Z,27.33
2018-05-14T11:39:51.959Z,27.34
2018-05-14T11:40:57.736Z,27.27
2018-05-14T11:42:04.244Z,27.27
2018-05-14T11:43:10.058Z,27.29
2018-05-14T11:44:15.815Z,27.32
2018-05-14T11:45:21.594Z,27.28
2018-05-14T11:46:27.352Z,27.31
2018-05-14T11:47:33.120Z,27.22
2018-05-14T11:48:39.659Z,27.12
2018-05-14T11:49:46.183Z,27.15
2018-05-14T11:50:51.968Z,27.13
2018-05-14T11:51:58.699Z,27.09
2018-05-14T11:53:04.447Z,27.11
2018-05-14T11:54:10.238Z,27.17
2018-05-14T11:55:15.998Z,27.20
2018-05-14T11:56:21.766Z,27.17
2018-05-14T11:57:27.523Z,27.20
2018-05-14T11:58:33.299Z,27.15
2018-05-14T11:59:39.070Z,27.08
2018-05-14T12:00:44.833Z,27.06
2018-05-14T12:01:50.596Z,27.06
2018-05-14T12:02:56.436Z,27.10
2018-05-14T12:04:03.078Z,27.11
2018-05-14T12:05:08.859Z,27.13
2018-05-14T12:06:14.619Z,27.15
2018-05-14T12:07:20.390Z,27.12
2018-05-14T12:08:26.147Z,27.10
2018-05-14T12:09:31.899Z,27.09
2018-05-14T12:10:37.683Z,27.06
2018-05-14T12:11:43.444Z,27.06
2018-05-14T12:12:49.191Z,27.05
2018-05-14T12:13:54.942Z,27.07
2018-05-14T12:15:00.711Z,27.12
2018-05-14T12:16:06.564Z,27.21
2018-05-14T12:17:12.473Z,27.32
2018-05-14T12:18:18.277Z,27.37
2018-05-14T12:19:24.796Z,27.33
2018-05-14T12:20:30.564Z,27.30
2018-05-14T12:21:37.107Z,27.31
2018-05-14T12:22:42.851Z,27.41
2018-05-14T12:23:48.591Z,27.48
2018-05-14T12:24:54.522Z,27.52
2018-05-14T12:26:00.319Z,27.54
2018-05-14T12:27:06.152Z,27.39
2018-05-14T12:28:11.698Z,27.37
2018-05-14T12:29:17.454Z,27.27
2018-05-14T12:30:23.206Z,27.11
2018-05-14T12:31:28.987Z,27.13
2018-05-14T12:32:36.263Z,27.05
2018-05-14T12:33:42.035Z,27.06
2018-05-14T12:34:47.820Z,27.01
2018-05-14T12:35:53.578Z,27.01
2018-05-14T12:37:00.106Z,27.07
2018-05-14T12:38:05.929Z,27.13
2018-05-14T12:39:11.683Z,27.12
2018-05-14T12:40:17.471Z,27.16
2018-05-14T12:41:23.235Z,27.20
2018-05-14T12:42:28.996Z,27.26
2018-05-14T12:43:34.767Z,27.28
2018-05-14T12:44:40.522Z,27.28
2018-05-14T12:45:46.266Z,27.21
2018-05-14T12:46:52.020Z,27.24
2018-05-14T12:47:57.781Z,27.27
2018-05-14T12:49:03.984Z,27.25
2018-05-14T12:50:09.731Z,27.27
2018-05-14T12:51:15.491Z,27.27
2018-05-14T12:52:21.284Z,27.27
2018-05-14T12:53:27.066Z,27.27
2018-05-14T12:54:32.845Z,27.27
2018-05-14T12:55:39.375Z,27.27
2018-05-14T12:56:45.118Z,27.33
2018-05-14T12:57:50.878Z,27.39
2018-05-14T12:58:57.424Z,27.34
2018-05-14T13:00:03.214Z,27.42
2018-05-14T13:01:08.972Z,27.45
2018-05-14T13:02:14.493Z,27.39
2018-05-14T13:03:20.248Z,27.41
2018-05-14T13:04:26.013Z,27.45
2018-05-14T13:05:31.816Z,27.49
2018-05-14T13:06:37.576Z,27.49
2018-05-14T13:07:43.379Z,27.50
2018-05-14T13:08:49.908Z,27.50
2018-05-14T13:09:55.662Z,27.47
2018-05-14T13:11:02.220Z,27.44
2018-05-14T13:12:07.981Z,27.42
2018-05-14T13:13:14.588Z,27.37
2018-05-14T13:14:21.246Z,27.33
2018-05-14T13:15:27.010Z,27.36
2018-05-14T13:16:32.897Z,27.37
2018-05-14T13:17:39.452Z,27.46
2018-05-14T13:18:46.026Z,27.48
2018-05-14T13:19:51.781Z,27.58
2018-05-14T13:20:57.231Z,27.54
2018-05-14T13:22:03.011Z,27.51
2018-05-14T13:23:09.569Z,27.51
2018-05-14T13:24:15.311Z,27.48
2018-05-14T13:25:21.065Z,27.49
2018-05-14T13:26:27.587Z,27.44
2018-05-14T13:27:33.179Z,27.35
2018-05-14T13:28:38.941Z,27.29
2018-05-14T13:29:44.709Z,27.15
2018-05-14T13:30:50.457Z,27.15
2018-05-14T13:31:55.882Z,27.16
2018-05-14T13:33:01.660Z,27.13
2018-05-14T13:34:08.183Z,27.17
2018-05-14T13:35:13.955Z,27.16
2018-05-14T13:36:19.728Z,27.20
2018-05-14T13:37:25.569Z,27.21
2018-05-14T13:38:31.496Z,27.20
2018-05-14T13:39:38.012Z,27.20
2018-05-14T13:40:43.764Z,27.24
2018-05-14T13:41:49.529Z,27.24
2018-05-14T13:42:56.118Z,27.25
2018-05-14T13:44:02.080Z,27.28
2018-05-14T13:45:07.558Z,27.29
2018-05-14T13:46:13.314Z,27.32
2018-05-14T13:47:19.850Z,27.32
2018-05-14T13:48:25.591Z,27.29
2018-05-14T13:49:31.366Z,27.33
2018-05-14T13:50:37.882Z,27.34
2018-05-14T13:51:43.630Z,27.38
2018-05-14T13:52:49.386Z,27.37
2018-05-14T13:53:55.135Z,27.36
2018-05-14T13:55:00.908Z,27.38
2018-05-14T13:56:06.668Z,27.43
2018-05-14T13:57:12.494Z,27.44
2018-05-14T13:58:18.432Z,27.47
2018-05-14T13:59:24.195Z,27.48
2018-05-14T14:00:29.988Z,27.33
2018-05-14T14:01:35.763Z,27.31
2018-05-14T14:02:41.514Z,27.36
2018-05-14T14:03:47.615Z,27.38
2018-05-14T14:04:53.493Z,27.43
2018-05-14T14:06:00.159Z,27.44
2018-05-14T14:07:05.659Z,27.48
2018-05-14T14:08:11.415Z,27.47
2018-05-14T14:09:17.941Z,27.53
2018-05-14T14:10:23.714Z,27.52
2018-05-14T14:11:29.555Z,27.56
2018-05-14T14:12:35.462Z,27.52
2018-05-14T14:13:41.232Z,27.47
2018-05-14T14:14:48.506Z,27.35